Time;durP1;ratioP1;P1;durP2;ratioP2;P2;SDS_P1;SDS_P2;PMS_P1;PMS_P2;Temp;Humidity;BMP_temperature;BMP_pressure;BME280_temperature;BME280_humidity;BME280_pressure;Samples;Min_cycle;Max_cycle;Signal;HPM_P1;HPM_P2
2022/07/09 00:01:02;;;;;;;6.22;2.40;;;25.10;47.60;;;;;;7395312;19;20038;-76
2022/07/09 00:03:31;;;;;;;6.43;2.63;;;25.10;47.60;;;;;;7392748;19;20516;-76
2022/07/09 00:06:02;;;;;;;8.13;2.13;;;25.20;47.70;;;;;;7395550;19;20041;-77
2022/07/09 00:08:31;;;;;;;4.18;2.05;;;25.20;47.60;;;;;;7393537;19;20031;-76
2022/07/09 00:11:00;;;;;;;4.57;1.92;;;25.20;47.60;;;;;;7393787;19;20014;-76
2022/07/09 00:13:31;;;;;;;3.65;2.40;;;25.10;47.70;;;;;;7391760;19;20027;-75
2022/07/09 00:16:00;;;;;;;;;;;25.10;47.80;;;;;;7390685;19;20031;-76
2022/07/09 00:18:29;;;;;;;7.07;2.45;;;25.00;47.90;;;;;;7391442;19;19939;-76
2022/07/09 00:20:58;;;;;;;5.00;2.10;;;24.90;48.10;;;;;;7392964;19;20478;-77
2022/07/09 00:23:28;;;;;;;3.75;2.20;;;24.90;48.20;;;;;;7391291;19;20053;-76
2022/07/09 00:25:57;;;;;;;6.68;2.42;;;24.90;49.00;;;;;;7389017;19;20018;-76
2022/07/09 00:28:25;;;;;;;5.00;2.20;;;24.80;48.50;;;;;;7391475;19;20101;-76
2022/07/09 00:30:57;;;;;;;3.63;1.92;;;24.80;48.60;;;;;;7393162;19;20044;-76
2022/07/09 00:33:26;;;;;;;9.80;2.30;;;24.70;48.70;;;;;;7390062;19;20390;-76
2022/07/09 00:35:55;;;;;;;5.97;2.13;;;24.80;48.80;;;;;;7391358;19;20014;-76
2022/07/09 00:38:23;;;;;;;7.07;2.40;;;24.70;48.80;;;;;;7389312;19;20031;-76
2022/07/09 00:40:52;;;;;;;9.27;3.22;;;24.70;48.70;;;;;;7393376;19;20022;-76
2022/07/09 00:43:22;;;;;;;5.07;2.58;;;24.80;48.80;;;;;;7392407;19;20022;-76
2022/07/09 00:45:51;;;;;;;6.13;2.50;;;24.80;48.90;;;;;;7391191;19;20038;-77
2022/07/09 00:48:22;;;;;;;6.53;2.50;;;24.80;49.00;;;;;;7391195;19;20099;-76
2022/07/09 00:50:51;;;;;;;;;;;24.80;48.90;;;;;;7390563;19;20018;-76
2022/07/09 00:53:22;;;;;;;4.90;2.28;;;24.90;49.00;;;;;;7390168;19;20086;-76
2022/07/09 00:55:51;;;;;;;3.67;2.30;;;24.80;48.80;;;;;;7391826;19;20085;-76
2022/07/09 00:58:21;;;;;;;5.25;2.25;;;24.90;48.80;;;;;;7391165;19;20031;-76
2022/07/09 01:00:50;;;;;;;5.63;2.45;;;24.80;48.80;;;;;;7390868;19;20014;-76
2022/07/09 01:03:21;;;;;;;7.35;2.75;;;24.80;48.80;;;;;;7388532;19;20033;-76
2022/07/09 01:05:51;;;;;;;3.60;2.03;;;24.80;48.90;;;;;;7389943;19;20023;-76
2022/07/09 01:08:20;;;;;;;7.85;2.58;;;24.80;48.80;;;;;;7392081;19;20015;-76
2022/07/09 01:10:51;;;;;;;5.68;2.10;;;24.70;49.00;;;;;;7391487;19;20022;-76
2022/07/09 01:13:19;;;;;;;3.53;2.17;;;24.70;49.10;;;;;;7389293;19;20019;-76
2022/07/09 01:15:48;;;;;;;5.60;2.30;;;24.70;49.20;;;;;;7389736;19;20014;-76
2022/07/09 01:18:18;;;;;;;5.53;2.60;;;24.60;49.40;;;;;;7388221;19;20042;-76
2022/07/09 01:20:49;;;;;;;5.97;2.28;;;24.60;49.40;;;;;;7389785;19;20029;-76
2022/07/09 01:23:18;;;;;;;;;;;24.60;49.40;;;;;;7390158;19;20098;-76
2022/07/09 01:25:47;;;;;;;4.25;2.25;;;24.60;49.50;;;;;;7391248;19;19935;-77
2022/07/09 01:28:16;;;;;;;8.40;2.47;;;24.60;50.30;;;;;;7390559;19;20085;-76
2022/07/09 01:30:45;;;;;;;6.38;2.28;;;24.50;49.70;;;;;;7389316;19;20739;-77
2022/07/09 01:33:13;;;;;;;5.25;2.10;;;24.50;49.80;;;;;;7386336;19;20018;-77
2022/07/09 01:35:42;;;;;;;9.27;2.33;;;24.50;49.90;;;;;;7390578;19;20086;-77
2022/07/09 01:38:13;;;;;;;6.85;2.05;;;24.50;49.90;;;;;;7391275;19;20385;-77
2022/07/09 01:40:42;;;;;;;;;;;24.50;49.80;;;;;;7389751;19;20018;-76
2022/07/09 01:43:11;;;;;;;7.60;2.13;;;24.50;50.00;;;;;;7389367;19;20615;-76
2022/07/09 01:45:39;;;;;;;5.05;2.20;;;24.40;49.90;;;;;;7389901;19;20022;-76
2022/07/09 01:48:08;;;;;;;4.70;2.30;;;24.40;50.00;;;;;;7389782;19;20031;-76
2022/07/09 01:50:37;;;;;;;4.47;2.15;;;24.40;50.00;;;;;;7387657;19;20098;-77
2022/07/09 01:53:06;;;;;;;4.20;2.15;;;24.40;50.20;;;;;;7387827;19;20030;-77
2022/07/09 01:55:37;;;;;;;6.95;2.38;;;24.30;50.30;;;;;;7389925;19;20051;-77
2022/07/09 01:58:06;;;;;;;;;;;24.30;50.30;;;;;;7390949;19;20022;-77
2022/07/09 02:00:34;;;;;;;4.93;2.50;;;24.40;50.40;;;;;;7389775;19;19919;-77
2022/07/09 02:03:03;;;;;;;3.95;2.20;;;24.30;50.30;;;;;;7393286;19;20129;-77
2022/07/09 02:05:32;;;;;;;5.22;2.72;;;24.30;50.30;;;;;;7400492;19;20089;-77
2022/07/09 02:08:00;;;;;;;3.78;2.28;;;24.30;51.00;;;;;;7397443;19;20429;-77
2022/07/09 02:10:30;;;;;;;5.53;2.28;;;24.30;50.40;;;;;;7396766;19;20018;-77
2022/07/09 02:13:01;;;;;;;7.03;2.40;;;24.30;50.50;;;;;;7394834;19;20026;-77
2022/07/09 02:15:29;;;;;;;;;;;24.30;50.50;;;;;;7397163;19;20026;-77
2022/07/09 02:17:58;;;;;;;5.40;2.30;;;24.30;50.60;;;;;;7398218;19;19922;-77
2022/07/09 02:20:27;;;;;;;5.95;2.83;;;24.20;50.50;;;;;;7392257;19;20058;-77
2022/07/09 02:22:56;;;;;;;5.35;2.28;;;24.20;50.60;;;;;;7393596;19;22247;-77
2022/07/09 02:25:25;;;;;;;4.05;2.20;;;24.20;50.60;;;;;;7397086;19;20035;-77
2022/07/09 02:27:54;;;;;;;4.40;2.28;;;24.20;50.70;;;;;;7397340;19;20020;-77
2022/07/09 02:30:25;;;;;;;3.10;2.10;;;24.10;50.70;;;;;;7391642;19;20019;-76
2022/07/09 02:32:53;;;;;;;;;;;24.10;50.70;;;;;;7393412;19;20048;-77
2022/07/09 02:35:22;;;;;;;4.00;2.17;;;24.10;50.70;;;;;;7394876;19;20541;-76
2022/07/09 02:37:51;;;;;;;6.28;2.70;;;24.10;50.60;;;;;;7392191;19;20675;-77
2022/07/09 02:40:20;;;;;;;4.20;2.08;;;24.10;50.80;;;;;;7393420;19;20110;-76
2022/07/09 02:42:49;;;;;;;4.75;2.13;;;24.10;50.70;;;;;;7394157;19;20449;-77
2022/07/09 02:45:17;;;;;;;4.43;2.20;;;24.00;50.80;;;;;;7396695;19;20019;-76
2022/07/09 02:47:49;;;;;;;4.10;2.33;;;24.00;50.90;;;;;;7394811;19;20364;-76
2022/07/09 02:50:17;;;;;;;;;;;24.00;50.90;;;;;;7396116;19;20022;-77
2022/07/09 02:52:46;;;;;;;2.97;2.10;;;24.00;50.90;;;;;;7391951;19;19961;-76
2022/07/09 02:55:14;;;;;;;4.80;2.22;;;23.90;51.00;;;;;;7392423;19;20161;-77
2022/07/09 02:57:43;;;;;;;4.85;2.22;;;23.90;50.90;;;;;;7394755;19;20078;-77
2022/07/09 03:00:13;;;;;;;6.45;2.70;;;23.90;50.90;;;;;;7402761;19;20026;-77
2022/07/09 03:02:42;;;;;;;3.95;2.28;;;23.90;51.20;;;;;;7397089;19;20098;-76
2022/07/09 03:05:14;;;;;;;6.45;2.38;;;23.80;51.20;;;;;;7393316;19;20018;-77
2022/07/09 03:07:43;;;;;;;7.70;2.83;;;23.80;51.40;;;;;;7393985;19;20101;-76
2022/07/09 03:10:12;;;;;;;7.88;2.70;;;23.70;51.50;;;;;;7396932;19;20094;-76
2022/07/09 03:12:41;;;;;;;5.45;2.50;;;23.70;51.70;;;;;;7390286;19;20463;-77
2022/07/09 03:15:16;;;;;;;5.43;2.47;;;23.70;51.80;;;;;;7397309;19;20010;-77
2022/07/09 03:17:45;;;;;;;8.68;2.83;;;23.70;51.60;;;;;;7395246;19;20021;-77
2022/07/09 03:20:17;;;;;;;4.97;2.58;;;23.70;51.60;;;;;;7392184;19;20021;-77
2022/07/09 03:22:46;;;;;;;5.82;3.05;;;23.70;51.60;;;;;;7396449;19;20358;-77
2022/07/09 03:25:15;;;;;;;7.53;2.92;;;23.60;51.60;;;;;;7392252;19;20053;-76
2022/07/09 03:27:44;;;;;;;4.32;2.30;;;23.60;51.50;;;;;;7392120;19;20109;-77
2022/07/09 03:30:13;;;;;;;6.63;2.40;;;23.60;51.60;;;;;;7392393;19;20018;-77
2022/07/09 03:32:42;;;;;;;5.55;2.58;;;23.60;51.90;;;;;;7392192;19;20033;-77
2022/07/09 03:35:11;;;;;;;5.55;2.15;;;23.60;52.00;;;;;;7393976;19;20437;-77
2022/07/09 03:37:42;;;;;;;6.13;2.50;;;23.50;52.30;;;;;;7393072;19;20049;-77
2022/07/09 03:40:14;;;;;;;;;;;23.50;52.30;;;;;;7396434;19;20097;-77
2022/07/09 03:42:43;;;;;;;6.55;2.50;;;23.50;52.30;;;;;;7396039;19;20511;-77
2022/07/09 03:45:12;;;;;;;4.40;2.25;;;23.40;52.20;;;;;;7394196;19;20093;-77
2022/07/09 03:47:41;;;;;;;5.15;2.88;;;23.30;52.40;;;;;;7394140;19;20029;-77
2022/07/09 03:50:12;;;;;;;3.83;2.42;;;23.30;52.60;;;;;;7397136;19;20026;-77
2022/07/09 03:52:43;;;;;;;4.33;2.47;;;23.20;52.70;;;;;;7398958;19;20093;-77
2022/07/09 03:55:11;;;;;;;;;;;23.20;52.80;;;;;;7399163;19;20279;-76
2022/07/09 03:57:42;;;;;;;8.65;2.63;;;23.20;52.90;;;;;;7395014;19;19981;-77
2022/07/09 04:00:11;;;;;;;5.10;2.55;;;23.10;52.70;;;;;;7395280;19;20014;-77
2022/07/09 04:02:40;;;;;;;4.97;2.47;;;23.10;52.60;;;;;;7397752;19;20528;-77
2022/07/09 04:05:11;;;;;;;5.18;2.70;;;23.20;52.60;;;;;;7393288;19;20028;-77
2022/07/09 04:07:40;;;;;;;3.35;2.60;;;23.10;52.90;;;;;;7396287;19;20022;-77
2022/07/09 04:10:12;;;;;;;3.95;2.50;;;23.10;53.00;;;;;;7398469;19;20062;-77
2022/07/09 04:12:40;;;;;;;4.43;2.70;;;23.10;53.10;;;;;;7394537;19;20126;-77
2022/07/09 04:15:10;;;;;;;7.88;2.70;;;23.10;53.00;;;;;;7396648;19;20113;-77
2022/07/09 04:17:39;;;;;;;6.10;2.85;;;23.10;53.00;;;;;;7396816;19;20025;-77
2022/07/09 04:20:09;;;;;;;4.28;2.85;;;23.00;53.10;;;;;;7396029;19;20015;-77
2022/07/09 04:22:37;;;;;;;3.83;2.70;;;23.00;53.20;;;;;;7393951;19;20106;-77
2022/07/09 04:25:07;;;;;;;6.10;2.50;;;23.00;53.30;;;;;;7394693;19;20089;-77
2022/07/09 04:27:39;;;;;;;3.60;2.60;;;23.00;53.40;;;;;;7396490;19;20509;-78
2022/07/09 04:30:08;;;;;;;;;;;23.00;53.40;;;;;;7398921;19;20025;-77
2022/07/09 04:32:37;;;;;;;5.75;2.70;;;23.00;53.50;;;;;;7395237;19;19933;-77
2022/07/09 04:35:07;;;;;;;6.60;2.50;;;22.90;53.30;;;;;;7395970;19;20023;-77
2022/07/09 04:37:36;;;;;;;4.97;2.88;;;22.80;53.50;;;;;;7394693;19;20482;-77
2022/07/09 04:40:05;;;;;;;10.45;2.90;;;22.90;53.60;;;;;;7403294;19;20035;-77
2022/07/09 04:42:33;;;;;;;5.38;2.90;;;22.80;53.80;;;;;;7406909;19;20062;-77
2022/07/09 04:45:05;;;;;;;5.55;2.40;;;22.80;53.90;;;;;;7402404;19;20099;-77
2022/07/09 04:47:34;;;;;;;3.75;2.92;;;22.80;53.80;;;;;;7394396;19;20739;-77
2022/07/09 04:50:04;;;;;;;6.57;2.50;;;22.90;53.80;;;;;;7397422;19;20375;-77
2022/07/09 04:52:32;;;;;;;4.57;2.20;;;22.80;53.70;;;;;;7395025;19;20022;-77
2022/07/09 04:55:01;;;;;;;4.18;2.70;;;22.90;53.80;;;;;;7394047;19;20082;-77
2022/07/09 04:57:33;;;;;;;5.90;2.70;;;22.90;53.70;;;;;;7393569;19;20018;-77
2022/07/09 05:00:06;;;;;;;12.07;7.70;;;23.00;53.80;;;;;;7395780;19;20322;-77
2022/07/09 05:02:34;;;;;;;9.00;5.10;;;23.00;53.70;;;;;;7395305;19;20423;-77
2022/07/09 05:05:03;;;;;;;14.75;8.90;;;23.00;53.60;;;;;;7395303;19;20014;-78
2022/07/09 05:07:32;;;;;;;21.00;14.32;;;23.00;53.80;;;;;;7395895;19;20026;-77
2022/07/09 05:10:01;;;;;;;15.63;10.82;;;23.00;53.80;;;;;;7396869;19;20018;-77
2022/07/09 05:12:30;;;;;;;8.10;5.18;;;23.00;53.80;;;;;;7397485;19;20760;-77
2022/07/09 05:14:59;;;;;;;10.25;4.85;;;23.10;53.70;;;;;;7393719;19;20086;-77
2022/07/09 05:17:30;;;;;;;7.70;3.50;;;23.10;53.80;;;;;;7396926;19;20098;-77
2022/07/09 05:19:59;;;;;;;;;;;23.10;53.80;;;;;;7395722;19;20508;-77
2022/07/09 05:22:27;;;;;;;7.63;4.90;;;23.10;53.90;;;;;;7392274;19;19918;-77
2022/07/09 05:24:56;;;;;;;10.60;5.13;;;23.10;53.80;;;;;;7393213;19;20081;-77
2022/07/09 05:27:25;;;;;;;5.45;3.08;;;23.10;53.90;;;;;;7394339;19;20437;-77
2022/07/09 05:29:54;;;;;;;5.63;3.67;;;23.20;53.90;;;;;;7393392;19;20015;-77
2022/07/09 05:32:22;;;;;;;12.25;6.00;;;23.10;53.60;;;;;;7393672;19;20019;-77
2022/07/09 05:34:54;;;;;;;10.25;6.50;;;23.10;53.70;;;;;;7392285;19;20015;-77
2022/07/09 05:37:22;;;;;;;;;;;23.10;53.70;;;;;;7400998;19;20022;-77
2022/07/09 05:39:51;;;;;;;6.97;4.50;;;23.20;53.70;;;;;;7400958;19;20283;-77
2022/07/09 05:42:20;;;;;;;8.30;5.35;;;23.20;53.70;;;;;;7398842;19;20086;-77
2022/07/09 05:44:48;;;;;;;6.43;3.47;;;23.20;53.70;;;;;;7396523;19;20022;-77
2022/07/09 05:47:20;;;;;;;6.20;2.75;;;23.20;53.80;;;;;;7402255;19;20117;-77
2022/07/09 05:49:49;;;;;;;6.13;3.20;;;23.20;53.60;;;;;;7401419;19;20621;-77
2022/07/09 05:52:20;;;;;;;8.80;4.07;;;23.20;53.50;;;;;;7398502;19;20106;-77
2022/07/09 05:54:49;;;;;;;;;;;23.20;53.50;;;;;;7399025;19;20386;-77
2022/07/09 05:57:18;;;;;;;7.05;3.38;;;23.30;53.50;;;;;;7400047;19;19950;-77
2022/07/09 05:59:46;;;;;;;3.28;2.60;;;23.30;53.50;;;;;;7400634;19;20018;-77
2022/07/09 06:02:15;;;;;;;4.55;2.35;;;23.30;53.70;;;;;;7401259;19;20011;-77
2022/07/09 06:04:44;;;;;;;3.58;2.53;;;23.30;53.60;;;;;;7397989;19;20035;-77
2022/07/09 06:07:12;;;;;;;10.80;2.88;;;23.40;53.40;;;;;;7399099;19;20449;-77
2022/07/09 06:09:44;;;;;;;5.05;2.72;;;23.50;53.30;;;;;;7399430;19;20082;-77
2022/07/09 06:12:13;;;;;;;6.00;2.47;;;23.50;53.10;;;;;;7401359;19;20014;-77
2022/07/09 06:14:41;;;;;;;6.00;2.60;;;23.60;52.90;;;;;;7397391;19;20018;-77
2022/07/09 06:17:10;;;;;;;4.75;2.55;;;23.70;52.70;;;;;;7400320;19;20018;-77
2022/07/09 06:19:40;;;;;;;4.07;2.75;;;23.80;52.50;;;;;;7397099;19;20198;-77
2022/07/09 06:22:08;;;;;;;6.40;2.50;;;23.80;52.50;;;;;;7399819;19;20026;-77
2022/07/09 06:24:37;;;;;;;5.72;2.40;;;23.90;52.50;;;;;;7399655;19;20014;-77
2022/07/09 06:27:10;;;;;;;5.45;2.40;;;24.00;52.60;;;;;;7398525;19;20022;-77
2022/07/09 06:29:39;;;;;;;4.85;2.28;;;24.00;52.30;;;;;;7399962;19;20038;-77
2022/07/09 06:32:09;;;;;;;6.97;2.80;;;24.10;52.50;;;;;;7398955;19;20335;-78
2022/07/09 06:34:38;;;;;;;5.95;2.58;;;24.10;52.20;;;;;;7400480;19;20011;-77
2022/07/09 06:37:07;;;;;;;5.30;2.40;;;24.20;52.10;;;;;;7400760;19;20050;-77
2022/07/09 06:39:50;;;;;;;6.60;2.50;;;24.20;52.10;;;;;;7395588;19;20078;-77
2022/07/09 06:42:21;;;;;;;6.18;2.42;;;24.20;52.10;;;;;;7407488;19;20034;-78
2022/07/09 06:44:50;;;;;;;4.95;2.40;;;24.30;52.20;;;;;;7405875;19;20130;-78
2022/07/09 06:47:19;;;;;;;4.80;2.65;;;24.30;52.10;;;;;;7401367;19;20025;-77
2022/07/09 06:49:47;;;;;;;6.75;2.75;;;24.40;52.00;;;;;;7404212;19;20022;-76
2022/07/09 06:52:16;;;;;;;5.20;2.72;;;24.40;51.50;;;;;;7398880;19;20742;-77
2022/07/09 06:54:45;;;;;;;9.32;4.88;;;24.50;51.30;;;;;;7399657;19;20090;-77
2022/07/09 06:57:15;;;;;;;7.68;3.55;;;24.50;51.50;;;;;;7395655;19;20093;-77
2022/07/09 06:59:48;;;;;;;6.53;2.75;;;24.60;51.30;;;;;;7396222;19;20019;-77
2022/07/09 07:02:17;;;;;;;4.93;2.50;;;24.60;51.20;;;;;;7394994;19;20044;-77
2022/07/09 07:04:46;;;;;;;3.90;2.28;;;24.60;51.00;;;;;;7396533;19;20018;-77
2022/07/09 07:07:15;;;;;;;7.50;2.30;;;24.60;51.00;;;;;;7398354;19;20030;-77
2022/07/09 07:09:43;;;;;;;3.33;2.33;;;24.60;51.10;;;;;;7396596;19;20044;-76
2022/07/09 07:12:12;;;;;;;5.28;2.33;;;24.70;51.10;;;;;;7393301;19;20086;-77
2022/07/09 07:14:41;;;;;;;3.83;2.10;;;24.70;50.90;;;;;;7395468;19;20117;-77
2022/07/09 07:17:13;;;;;;;5.22;1.95;;;24.70;50.50;;;;;;7395763;19;20338;-77
2022/07/09 07:19:41;;;;;;;6.47;2.22;;;24.80;50.60;;;;;;7395258;19;20329;-77
2022/07/09 07:22:10;;;;;;;5.55;2.20;;;24.90;50.80;;;;;;7396383;19;20046;-77
2022/07/09 07:24:39;;;;;;;6.82;2.47;;;24.80;50.10;;;;;;7394337;19;20023;-77
2022/07/09 07:27:08;;;;;;;5.10;2.20;;;24.90;50.10;;;;;;7397405;19;20018;-77
2022/07/09 07:29:37;;;;;;;5.03;2.20;;;24.90;49.80;;;;;;7397932;19;20019;-77
2022/07/09 07:32:06;;;;;;;3.33;1.95;;;24.90;50.00;;;;;;7397027;19;20745;-77
2022/07/09 07:34:37;;;;;;;3.00;1.85;;;25.00;50.00;;;;;;7395748;19;20014;-77
2022/07/09 07:37:07;;;;;;;5.03;2.17;;;24.90;49.50;;;;;;7395399;19;20491;-77
2022/07/09 07:39:36;;;;;;;6.18;2.40;;;25.00;50.00;;;;;;7392480;19;20015;-77
2022/07/09 07:42:06;;;;;;;7.35;2.10;;;25.10;50.00;;;;;;7397635;19;20039;-76
2022/07/09 07:44:35;;;;;;;8.07;2.05;;;25.00;49.70;;;;;;7395385;19;20606;-77
2022/07/09 07:47:04;;;;;;;4.20;2.08;;;25.10;49.70;;;;;;7395004;19;20021;-77
2022/07/09 07:49:33;;;;;;;5.18;1.65;;;25.10;49.70;;;;;;7397392;19;20778;-77
2022/07/09 07:52:04;;;;;;;6.72;2.00;;;25.20;49.50;;;;;;7394255;19;20034;-77
2022/07/09 07:54:33;;;;;;;4.15;2.10;;;25.20;49.00;;;;;;7394267;19;20698;-77
2022/07/09 07:57:02;;;;;;;3.85;1.67;;;25.30;49.00;;;;;;7396866;19;20015;-77
2022/07/09 07:59:31;;;;;;;6.28;1.92;;;25.30;49.10;;;;;;7393161;19;20332;-77
2022/07/09 08:02:00;;;;;;;7.43;2.08;;;25.30;48.50;;;;;;7395778;19;20449;-77
2022/07/09 08:04:28;;;;;;;4.68;1.90;;;25.30;48.30;;;;;;7393825;19;20666;-77
2022/07/09 08:06:57;;;;;;;6.72;1.90;;;25.30;48.30;;;;;;7396078;19;20027;-77
2022/07/09 08:09:29;;;;;;;4.57;1.55;;;25.30;48.10;;;;;;7393924;19;20021;-77
2022/07/09 08:11:58;;;;;;;3.72;1.58;;;25.40;48.20;;;;;;7393946;19;20073;-77
2022/07/09 08:14:27;;;;;;;3.85;1.65;;;25.40;47.70;;;;;;7396852;19;20010;-78
2022/07/09 08:16:55;;;;;;;2.70;1.77;;;25.40;47.50;;;;;;7395472;19;20022;-77
2022/07/09 08:19:24;;;;;;;3.83;1.48;;;25.40;47.90;;;;;;7396523;19;20037;-77
2022/07/09 08:21:53;;;;;;;4.70;1.80;;;25.40;47.40;;;;;;7393715;19;20106;-77
2022/07/09 08:24:21;;;;;;;6.97;1.70;;;25.40;47.00;;;;;;7396033;19;20117;-78
2022/07/09 08:26:53;;;;;;;7.38;1.52;;;25.50;47.00;;;;;;7395177;19;20046;-77
2022/07/09 08:29:22;;;;;;;;;;;25.50;46.90;;;;;;7395087;19;20022;-77
2022/07/09 08:31:50;;;;;;;4.60;1.42;;;25.60;46.80;;;;;;7395762;19;20002;-77
2022/07/09 08:34:20;;;;;;;4.97;1.58;;;25.60;46.90;;;;;;7395399;19;20635;-77
2022/07/09 08:36:48;;;;;;;3.92;1.48;;;25.60;47.20;;;;;;7394808;19;20014;-77
2022/07/09 08:39:23;;;;;;;4.75;1.75;;;25.70;46.90;;;;;;7392510;19;20097;-76
2022/07/09 08:41:55;;;;;;;5.68;1.60;;;25.60;46.70;;;;;;7394603;19;20014;-77
2022/07/09 08:44:29;;;;;;;3.83;1.52;;;25.70;46.80;;;;;;7394911;19;20027;-77
2022/07/09 08:47:03;;;;;;;3.80;1.48;;;25.70;46.60;;;;;;7394964;19;20014;-77
2022/07/09 08:49:35;;;;;;;6.00;1.40;;;25.70;46.60;;;;;;7395687;19;20010;-77
2022/07/09 08:52:05;;;;;;;3.63;1.30;;;25.70;46.80;;;;;;7391102;19;20019;-77
2022/07/09 08:54:39;;;;;;;4.38;1.60;;;25.70;47.00;;;;;;7392194;19;20649;-77
2022/07/09 08:57:10;;;;;;;4.18;1.55;;;25.80;47.10;;;;;;7393999;19;20045;-77
2022/07/09 08:59:42;;;;;;;3.80;1.38;;;25.80;46.70;;;;;;7390706;19;20018;-77
2022/07/09 09:02:13;;;;;;;;;;;25.90;46.70;;;;;;7394628;19;20101;-77
2022/07/09 09:04:42;;;;;;;4.10;1.45;;;26.00;46.80;;;;;;7393478;19;20222;-77
2022/07/09 09:07:18;;;;;;;5.38;1.70;;;26.00;46.80;;;;;;7391665;19;20026;-77
2022/07/09 09:09:47;;;;;;;3.75;1.73;;;25.90;47.00;;;;;;7393931;19;20022;-77
2022/07/09 09:12:29;;;;;;;8.68;1.70;;;26.00;47.30;;;;;;7392548;19;20041;-77
2022/07/09 09:14:58;;;;;;;3.80;1.55;;;26.00;47.30;;;;;;7391542;19;20081;-77
2022/07/09 09:17:27;;;;;;;4.80;1.80;;;26.00;46.60;;;;;;7395199;19;20086;-77
2022/07/09 09:19:55;;;;;;;4.65;1.60;;;26.00;47.20;;;;;;7393626;19;20026;-77
2022/07/09 09:22:24;;;;;;;4.88;1.90;;;26.10;46.90;;;;;;7393623;19;20325;-77
2022/07/09 09:24:53;;;;;;;4.78;2.08;;;26.00;46.90;;;;;;7391187;19;20453;-77
2022/07/09 09:27:33;;;;;;;2.63;1.50;;;26.00;47.00;;;;;;7394250;19;20030;-77
2022/07/09 09:30:02;;;;;;;342.60;251.60;;;26.00;46.80;;;;;;7393602;19;20018;-79
2022/07/09 09:32:31;;;;;;;5.68;2.65;;;26.00;46.30;;;;;;7392292;19;20074;-79
2022/07/09 09:35:05;;;;;;;6.05;1.90;;;25.70;46.50;;;;;;7388686;19;20097;-78
2022/07/09 09:37:34;;;;;;;4.20;1.85;;;25.60;46.80;;;;;;7389749;19;20046;-77
2022/07/09 09:40:12;;;;;;;6.13;1.70;;;25.50;47.50;;;;;;7389900;19;20015;-77
2022/07/09 09:42:44;;;;;;;8.13;1.90;;;25.70;47.80;;;;;;7387286;19;20033;-78
2022/07/09 09:45:18;;;;;;;5.20;1.77;;;25.70;47.20;;;;;;7390747;19;20106;-78
2022/07/09 09:47:49;;;;;;;3.20;1.63;;;25.80;46.80;;;;;;7393994;19;20022;-78
2022/07/09 09:50:23;;;;;;;4.43;1.70;;;25.90;46.70;;;;;;7391752;19;20018;-81
2022/07/09 09:52:54;;;;;;;7.88;1.95;;;26.00;47.10;;;;;;7394677;19;20033;-81
2022/07/09 09:55:25;;;;;;;4.90;2.20;;;26.00;47.70;;;;;;7393255;19;20036;-78
2022/07/09 09:58:01;;;;;;;7.50;1.80;;;25.90;47.40;;;;;;7396825;19;20018;-85
2022/07/09 10:00:33;;;;;;;4.30;1.83;;;25.90;47.70;;;;;;7392043;19;20046;-79
2022/07/09 10:03:03;;;;;;;3.85;1.70;;;26.00;46.90;;;;;;7395818;19;20178;-81
2022/07/09 10:05:32;;;;;;;5.47;1.58;;;26.00;47.10;;;;;;7392807;19;20353;-76
2022/07/09 10:08:01;;;;;;;66.75;44.90;;;25.90;47.00;;;;;;7391481;19;20023;-76
2022/07/09 10:13:08;;;;;;;6.43;2.65;;;26.30;47.00;;;;;;7379746;19;20022;-79
2022/07/09 10:15:37;;;;;;;8.50;2.60;;;26.40;46.60;;;;;;7392794;19;20010;-75
2022/07/09 10:18:12;;;;;;;4.38;1.90;;;26.50;46.50;;;;;;7393008;19;20043;-77
2022/07/09 10:20:45;;;;;;;5.70;2.10;;;26.60;46.20;;;;;;7387164;19;20110;-76
2022/07/09 10:23:24;;;;;;;6.32;2.10;;;26.60;45.40;;;;;;7398601;19;20093;-77
2022/07/09 10:25:55;;;;;;;6.18;2.33;;;26.60;45.10;;;;;;7398867;19;20342;-77
2022/07/09 10:28:27;;;;;;;5.38;2.20;;;26.70;45.40;;;;;;7397505;19;20612;-76
2022/07/09 10:30:56;;;;;;;6.43;2.38;;;26.70;44.80;;;;;;7396319;19;20021;-77
2022/07/09 10:33:35;;;;;;;5.43;2.10;;;26.70;45.10;;;;;;7394333;19;20019;-77
2022/07/09 10:36:13;;;;;;;6.75;2.08;;;26.80;45.40;;;;;;7400547;19;20018;-76
2022/07/09 10:38:42;;;;;;;4.90;1.75;;;26.80;45.20;;;;;;7395126;19;20741;-76
2022/07/09 10:41:12;;;;;;;5.50;1.70;;;26.90;44.80;;;;;;7398703;19;20035;-77
2022/07/09 10:43:46;;;;;;;8.32;2.67;;;27.00;45.00;;;;;;7401353;19;20039;-77
2022/07/09 10:46:16;;;;;;;12.68;2.42;;;27.00;45.10;;;;;;7390146;19;20010;-76
2022/07/09 10:48:46;;;;;;;6.25;1.88;;;27.00;44.60;;;;;;7399317;19;20130;-76
2022/07/09 10:51:21;;;;;;;12.43;2.17;;;27.00;44.40;;;;;;7399135;19;20017;-77
2022/07/09 10:53:50;;;;;;;7.15;2.70;;;27.00;44.70;;;;;;7395999;19;20332;-76
2022/07/09 10:56:20;;;;;;;6.35;2.05;;;27.10;44.00;;;;;;7392792;19;20447;-77
2022/07/09 10:58:52;;;;;;;7.15;1.98;;;27.00;44.30;;;;;;7397623;19;20024;-76
2022/07/09 11:01:26;;;;;;;6.07;1.77;;;27.10;44.70;;;;;;7391488;19;20584;-77
2022/07/09 11:03:55;;;;;;;8.02;2.20;;;27.10;44.60;;;;;;7393460;19;20018;-78
2022/07/09 11:06:24;;;;;;;4.90;2.13;;;27.20;44.00;;;;;;7395117;19;20085;-77
2022/07/09 11:08:53;;;;;;;8.15;2.17;;;27.30;44.10;;;;;;7399719;19;20312;-78
2022/07/09 11:11:24;;;;;;;10.90;3.05;;;27.40;43.80;;;;;;7392608;19;20019;-77
2022/07/09 11:13:57;;;;;;;11.77;2.65;;;27.30;44.30;;;;;;7397332;19;20086;-77
2022/07/09 11:16:26;;;;;;;6.57;2.50;;;27.40;44.20;;;;;;7407913;19;20103;-78
2022/07/09 11:18:57;;;;;;;6.28;2.38;;;27.60;43.40;;;;;;7423156;19;20742;-78
2022/07/09 11:21:26;;;;;;;8.52;3.42;;;27.80;43.20;;;;;;7425558;19;20015;-78
2022/07/09 11:26:03;;;;;;;3.58;1.92;;;28.00;42.70;;;;;;7428762;19;21047;-77
2022/07/09 11:28:33;;;;;;;4.78;2.08;;;28.00;42.70;;;;;;7408033;19;20117;-77
2022/07/09 11:31:03;;;;;;;5.70;1.90;;;28.10;42.90;;;;;;7421741;19;20014;-77
2022/07/09 11:34:10;;;;;;;3.38;2.00;;;28.30;42.80;;;;;;7410986;19;20772;-76
2022/07/09 11:36:22;;;;;;;6.45;2.13;;;28.40;42.00;;;;;;7370063;19;20018;-79
2022/07/09 11:38:52;;;;;;;9.20;3.42;;;28.40;41.60;;;;;;7425028;19;20035;-78
2022/07/09 12:00:27;;;;;;;4.75;1.70;;;26.80;44.30;;;;;;7424893;19;20389;-80
2022/07/09 12:02:56;;;;;;;3.83;2.47;;;26.90;43.90;;;;;;7424143;19;20043;-77
2022/07/09 12:05:35;;;;;;;5.82;2.55;;;27.30;43.80;;;;;;7399013;19;20101;-76
2022/07/09 12:08:07;;;;;;;3.65;2.13;;;27.60;43.60;;;;;;7418249;19;20010;-78
2022/07/09 12:10:37;;;;;;;6.97;2.08;;;28.00;43.30;;;;;;7419197;19;20034;-78
2022/07/09 12:13:09;;;;;;;4.43;2.40;;;28.30;42.70;;;;;;7427080;19;20118;-76
2022/07/09 12:15:40;;;;;;;;;;;28.60;42.20;;;;;;7424477;19;20318;-76
2022/07/09 12:18:15;;;;;;;467.00;373.98;;;28.70;41.90;;;;;;7422149;19;19993;-80
2022/07/09 12:20:44;;;;;;;3.55;3.10;;;28.80;41.80;;;;;;7244235;19;20023;-80
2022/07/09 12:23:13;;;;;;;4.95;2.45;;;28.80;41.20;;;;;;6357024;19;20014;-79
2022/07/09 12:25:42;;;;;;;5.28;1.92;;;28.80;40.90;;;;;;6355859;19;20026;-78
2022/07/09 12:28:11;;;;;;;4.78;2.13;;;28.70;40.10;;;;;;6316057;19;20194;-78
2022/07/09 12:30:44;;;;;;;2.13;1.92;;;28.70;40.20;;;;;;6350442;19;20045;-79
2022/07/09 12:33:12;;;;;;;6.80;2.30;;;28.70;40.80;;;;;;6350495;19;20018;-79
2022/07/09 12:35:41;;;;;;;8.13;2.25;;;29.00;41.00;;;;;;6344844;19;20518;-79
2022/07/09 12:38:10;;;;;;;4.95;2.60;;;29.20;40.90;;;;;;6348526;19;20014;-79
2022/07/09 12:40:39;;;;;;;5.50;2.30;;;29.40;40.30;;;;;;6358048;19;19999;-79
2022/07/09 12:43:07;;;;;;;5.28;2.05;;;29.30;40.00;;;;;;6344703;19;20307;-79
2022/07/09 12:45:36;;;;;;;2.53;1.98;;;29.30;39.60;;;;;;6357360;19;20100;-79
2022/07/09 12:48:08;;;;;;;5.40;1.92;;;29.30;40.00;;;;;;7094401;19;20022;-79
2022/07/09 12:50:36;;;;;;;7.32;2.20;;;29.30;39.90;;;;;;7337044;19;20046;-79
2022/07/09 12:53:05;;;;;;;1.70;1.60;;;29.20;39.70;;;;;;7361020;19;20060;-79
2022/07/09 12:55:34;;;;;;;4.97;2.00;;;29.00;39.60;;;;;;7360463;19;20023;-79
2022/07/09 12:58:03;;;;;;;6.38;2.10;;;29.00;39.80;;;;;;7355624;19;20065;-79
2022/07/09 13:00:31;;;;;;;4.65;1.90;;;28.80;39.30;;;;;;7334947;19;20014;-79
2022/07/09 13:03:00;;;;;;;7.53;1.90;;;28.80;39.80;;;;;;7359214;19;20030;-79
2022/07/09 13:05:32;;;;;;;6.50;2.13;;;28.90;39.90;;;;;;7337373;19;20105;-80
2022/07/09 13:08:00;;;;;;;6.78;2.15;;;29.00;40.30;;;;;;7379881;19;20051;-79
2022/07/09 13:10:30;;;;;;;5.15;2.60;;;29.20;40.60;;;;;;7322111;19;20452;-80
2022/07/09 13:12:59;;;;;;;3.05;2.20;;;29.40;40.70;;;;;;7327519;19;20114;-79
2022/07/09 13:15:27;;;;;;;2.90;1.88;;;29.60;40.20;;;;;;7306639;19;20105;-80
2022/07/09 13:17:56;;;;;;;3.70;2.30;;;29.70;39.90;;;;;;7328259;19;20035;-80
2022/07/09 13:20:25;;;;;;;8.45;2.28;;;29.70;38.00;;;;;;7307749;19;20018;-80
2022/07/09 13:22:56;;;;;;;5.20;2.58;;;29.60;38.70;;;;;;7352348;19;20031;-80
2022/07/09 13:25:25;;;;;;;3.58;2.22;;;29.70;39.30;;;;;;7317446;19;20011;-80
2022/07/09 13:27:54;;;;;;;4.97;1.90;;;29.90;39.30;;;;;;7330831;19;20018;-80